Arbúcies





Hora UTC 22:05
Temperatura 10.4 ºC
Humitat 86.2 %
Pressió 1026.0 hPa
Pluja 0.0 mm
Velocitat vent 9.5 km/h
Direcció vent SW
Radiació solar 0.0 W/m²

Dades diàries 2020-10-29



Hora UTC (hivern +1h; estiu +2h)
Temperatura (ºC) Humitat (%) Pressió (hPa) Velocitat vent (km/h) Precipitació (mm) Radiació solar (W/m²)
Hora UTC Aire Humitat Pressió Vel. Dir. Vel. Max Dir. Intent. màx 5 min. Rad. Sol.
00:05 10.2 91.0 1023.0 7.9 SSW 11.3 SW 0.0 0.0
00:10 10.2 91.2 1024.0 8.9 SSW 12.0 SSW 0.0 0.0
00:15 10.2 91.4 1024.0 7.8 SSW 12.3 SSW 0.0 0.0
00:20 10.4 91.2 1024.0 8.8 SSW 14.5 SW 0.0 0.0
00:25 10.5 90.6 1024.0 8.1 SSW 12.7 SSW 0.0 0.0
00:30 10.6 90.1 1024.0 6.7 SW 10.2 SW 0.0 0.0
00:35 10.3 89.9 1024.0 6.8 SSW 9.2 SSW 0.0 0.0
00:40 10.2 90.7 1024.0 7.9 SSW 10.2 SW 0.0 0.0
00:45 10.2 90.9 1024.0 7.7 SSW 11.6 SSW 0.0 0.0
00:50 10.2 90.9 1024.0 8.1 SW 11.3 SW 0.0 0.0
00:55 10.2 90.6 1024.0 10.3 SW 15.5 SW 0.0 0.0
01:00 10.2 90.2 1024.0 10.3 SW 15.2 SSW 0.0 0.0
01:05 10.3 89.7 1024.0 9.8 SW 14.8 SW 0.0 0.0
01:10 10.1 89.0 1024.0 8.4 SW 12.3 SW 0.0 0.0
01:15 9.9 90.1 1024.0 9.2 SSW 12.3 SSW 0.0 0.0
01:20 9.6 90.2 1024.0 7.4 SW 10.2 SW 0.0 0.0
01:25 9.4 91.0 1024.0 7.3 SSW 9.9 SW 0.0 0.0
01:30 9.5 91.8 1024.0 8.2 SSW 13.1 SW 0.0 0.0
01:35 9.5 91.9 1024.0 8.8 SSW 12.7 SW 0.0 0.0
01:40 9.6 92.1 1024.0 8.2 SSW 10.9 SSW 0.0 0.0
01:45 9.5 91.9 1024.0 9.5 SW 12.7 SSW 0.0 0.0
01:50 9.4 91.8 1024.0 9.2 SSW 13.4 SSW 0.0 0.0
01:55 9.4 92.2 1024.0 8.1 SSW 12.3 SSW 0.0 0.0
02:00 9.3 92.1 1024.0 8.2 SSW 10.6 SSW 0.0 0.0
02:05 9.3 92.4 1024.0 8.1 SSW 10.9 SSW 0.0 0.0
02:10 9.1 92.0 1024.0 8.0 SW 10.9 SSW 0.0 0.0
02:15 9.0 92.4 1023.0 8.0 SW 10.6 SW 0.0 0.0
02:20 9.1 93.1 1024.0 8.4 SW 12.7 SW 0.0 0.0
02:25 9.4 93.0 1024.0 9.9 SW 14.8 SSW 0.0 0.0
02:30 9.4 92.4 1024.0 8.9 SW 14.1 SW 0.0 0.0
02:35 9.3 92.3 1023.0 6.2 SW 9.9 SW 0.0 0.0
02:40 9.1 92.0 1024.0 5.2 SW 8.1 SW 0.0 0.0
02:45 8.8 92.1 1023.0 5.2 SW 8.5 SSW 0.0 0.0
02:50 8.9 92.9 1024.0 7.5 SSW 12.7 SSW 0.0 0.0
02:55 9.0 93.0 1024.0 7.3 SW 12.3 SW 0.0 0.0
03:00 9.1 93.2 1024.0 9.0 SSW 13.4 SSW 0.0 0.0
03:05 9.1 92.7 1024.0 7.6 SW 10.6 SW 0.0 0.0
03:10 8.8 92.7 1025.0 8.4 SSW 11.6 SSW 0.0 0.0
03:15 8.9 93.3 1024.0 8.4 SSW 14.8 SSW 0.0 0.0
03:20 9.1 93.5 1024.0 7.8 SSW 12.0 S 0.0 0.0
03:25 8.9 93.0 1024.0 6.5 SW 10.2 SSW 0.0 0.0
03:30 9.0 93.4 1024.0 8.1 SSW 12.3 SSW 0.0 0.0
03:35 9.0 93.2 1024.0 9.1 SSW 13.8 SSW 0.0 0.0
03:40 9.1 93.4 1024.0 9.9 SW 15.5 SW 0.0 0.0
03:45 9.0 93.1 1024.0 8.6 SSW 12.0 SSW 0.0 0.0
03:50 8.9 92.9 1024.0 6.7 SW 9.9 SSW 0.0 0.0
03:55 8.6 92.9 1024.0 7.0 SSW 9.2 SSW 0.0 0.0
04:00 8.6 93.1 1024.0 6.7 SW 10.6 SSW 0.0 0.0
04:05 8.6 93.3 1024.0 7.0 SW 10.6 SW 0.0 0.0
04:10 8.8 93.8 1025.0 8.0 SW 12.7 WSW 0.0 0.0
04:15 8.8 93.5 1024.0 7.6 SSW 11.3 SSW 0.0 0.0
04:20 8.7 93.6 1024.0 7.0 SSW 9.2 SSW 0.0 0.0
04:25 8.8 93.9 1024.0 6.5 SSW 10.2 SW 0.0 0.0
04:30 8.9 93.9 1024.0 7.7 SW 10.2 SW 0.0 0.0
04:35 8.7 93.6 1024.0 7.1 SW 10.2 SW 0.0 0.0
04:40 8.6 93.7 1025.0 6.5 SSW 9.2 SSW 0.0 0.0
04:45 8.7 94.1 1024.0 7.2 SSW 10.2 SSW 0.0 0.0
04:50 8.7 93.9 1024.0 9.3 SSW 16.6 SSW 0.0 0.0
04:55 9.1 94.5 1025.0 12.4 SW 18.7 SSW 0.0 0.0
05:00 9.1 93.7 1024.0 8.4 SW 13.4 SW 0.0 0.0
05:05 9.1 93.7 1024.0 7.5 SSW 9.9 SSW 0.0 0.0
05:10 8.9 93.4 1025.0 6.8 SSW 10.9 SW 0.0 0.0
05:15 8.6 93.3 1025.0 6.6 SW 10.9 WNW 0.0 0.0
05:20 9.0 94.3 1025.0 8.0 SW 13.4 SW 0.0 0.0
05:25 9.1 93.8 1025.0 6.9 SW 9.9 SW 0.0 0.0
05:30 8.9 93.5 1025.0 7.4 SW 9.5 SW 0.0 0.0
05:35 8.7 93.5 1025.0 7.4 SW 9.2 SW 0.0 0.0
05:40 8.8 94.2 1025.0 8.3 SSW 11.6 SSW 0.0 0.0
05:45 9.1 94.2 1025.0 7.1 SW 9.9 SW 0.0 0.0
05:50 9.0 94.0 1025.0 7.2 SW 10.2 SW 0.0 0.0
05:55 8.8 93.7 1025.0 5.8 SW 7.8 SSW 0.0 0.0
06:00 8.8 94.0 1025.0 5.8 SW 8.1 SW 0.0 0.0
06:05 8.8 94.1 1025.0 7.5 SSW 9.2 SSW 0.0 0.0
06:10 9.1 94.6 1025.0 7.9 SSW 11.3 SW 0.0 0.5
06:15 9.2 94.2 1024.0 5.1 SW 10.9 SSW 0.0 0.0
06:20 9.0 94.1 1025.0 7.2 SSW 9.5 SSW 0.0 0.6
06:25 9.1 94.4 1025.0 8.4 SSW 10.6 SW 0.0 1.9
06:30 9.3 94.4 1025.0 7.9 SSW 10.6 SSW 0.0 3.5
06:35 9.3 94.2 1025.0 7.0 SSW 9.5 SW 0.0 5.2
06:40 9.1 94.1 1025.0 8.6 SSW 12.3 SW 0.0 9.5
06:45 9.3 94.6 1025.0 7.9 SSW 10.2 SSW 0.0 15.9
06:50 9.5 94.4 1025.0 8.5 SSW 14.8 SSW 0.0 19.9
06:55 9.5 94.2 1025.0 8.0 SSW 12.3 SSW 0.0 24.5
07:00 9.5 94.3 1025.0 7.5 SW 10.2 SSW 0.0 33.2
07:05 9.7 94.2 1025.0 5.7 SSW 9.2 SSW 0.0 46.7
07:10 9.7 94.1 1026.0 6.1 SSW 10.2 SSW 0.0 47.7
07:15 9.8 94.1 1025.0 7.3 SSW 10.2 SSW 0.0 44.4
07:20 9.7 94.0 1025.0 7.1 SW 12.7 SW 0.0 51.2
07:25 9.9 94.3 1025.0 8.6 SW 12.7 SW 0.0 61.4
07:30 10.0 93.9 1025.0 7.4 SW 9.9 SSW 0.0 69.5
07:35 10.1 94.0 1025.0 5.6 SSW 8.8 SW 0.0 83.4
07:40 10.3 94.1 1026.0 5.7 SSW 7.4 SSW 0.0 90.2
07:45 10.7 94.0 1025.0 4.8 SSW 6.4 SSW 0.0 84.4
07:50 10.9 93.5 1025.0 5.5 SSW 7.1 SSW 0.0 86.4
07:55 11.2 93.4 1025.0 5.8 SSW 8.8 SW 0.0 85.3
08:00 11.6 92.5 1026.0 4.0 SSW 9.5 SSW 0.0 106.3
08:05 11.5 91.6 1025.0 1.2 S 3.9 SSE 0.0 144.3
08:10 11.6 92.0 1026.0 0.5 S 2.5 S 0.0 175.1
08:15 12.0 92.1 1025.0 0.2 SSE 1.8 SSE 0.0 189.0
08:20 12.2 91.1 1025.0 0.6 ENE 2.8 ENE 0.0 203.4
08:25 12.6 90.2 1025.0 1.6 ENE 3.9 ENE 0.0 237.5
08:30 12.9 88.4 1025.0 0.0 SE 0.7 NNE 0.0 240.3
08:35 13.1 87.0 1025.0 0.0 SSE 0.4 SSE 0.0 279.6
08:40 13.6 86.2 1026.0 0.3 NNE 2.1 NNW 0.0 231.5
08:45 14.1 83.4 1025.0 0.3 NE 2.1 NNE 0.0 198.2
08:50 14.0 82.2 1025.0 0.7 SSW 2.5 SW 0.0 355.5
08:55 14.1 81.4 1025.0 0.1 SSE 1.1 SSE 0.0 354.0
09:00 14.3 80.5 1025.0 0.0 SE 0.4 SE 0.0 223.6
09:05 14.7 80.2 1025.0 0.0 SSE 1.1 SSE 0.0 322.4
09:10 14.7 77.0 1026.0 0.2 ESE 1.8 E 0.0 232.9
09:15 14.7 77.1 1026.0 0.7 E 3.5 ENE 0.0 223.6
09:20 14.8 75.6 1026.0 3.8 ENE 6.0 ENE 0.0 272.7
09:25 15.1 73.8 1026.0 2.8 ENE 6.0 NE 0.0 370.1
09:30 15.4 72.8 1026.0 2.0 E 4.9 NE 0.0 314.5
09:35 15.5 72.3 1026.0 3.4 NE 6.0 NNE 0.0 312.1
09:40 15.7 71.2 1026.0 2.6 ENE 4.2 ENE 0.0 226.6
09:45 15.7 71.6 1026.0 2.5 NE 4.2 ENE 0.0 298.1
09:50 16.1 72.3 1026.0 2.4 NNE 5.3 NNE 0.0 464.5
09:55 16.1 70.0 1026.0 3.9 N 7.8 N 0.0 427.7
10:00 16.3 71.7 1026.0 3.1 N 5.6 N 0.0 472.8
10:05 17.0 70.0 1026.0 3.0 NE 7.8 NE 0.0 491.1
10:10 17.0 69.1 1026.0 3.6 E 7.8 ENE 0.0 513.0
10:15 16.9 71.0 1026.0 2.1 E 5.6 ENE 0.0 343.7
10:20 16.4 71.7 1025.0 1.1 E 4.2 SE 0.0 132.9
10:25 16.0 74.3 1026.0 0.8 ENE 3.5 ENE 0.0 183.9
10:30 16.0 75.5 1026.0 0.8 E 2.5 E 0.0 208.8
10:35 16.2 75.6 1026.0 0.8 SE 3.5 SE 0.0 321.5
10:40 16.9 74.3 1026.0 1.1 E 3.5 NE 0.0 537.3
10:45 17.3 71.8 1025.0 1.1 E 3.9 ENE 0.0 416.6
10:50 17.5 71.6 1025.0 0.7 ESE 2.1 ESE 0.0 522.9
10:55 18.2 69.0 1025.0 1.6 S 4.2 SSW 0.0 570.0
11:00 18.4 67.1 1025.0 0.7 SSE 2.5 S 0.0 551.5
11:05 18.8 63.7 1025.0 0.3 ENE 2.8 NE 0.0 567.3
11:10 19.2 57.6 1026.0 1.3 ESE 3.2 SE 0.0 561.8
11:15 18.8 58.3 1025.0 1.5 SE 3.2 ESE 0.0 593.3
11:20 19.1 56.9 1025.0 2.5 ENE 6.0 E 0.0 606.8
11:25 19.5 54.9 1025.0 2.5 ENE 8.5 ENE 0.0 630.9
11:30 19.9 53.2 1025.0 3.9 NE 8.8 E 0.0 664.0
11:35 19.7 53.7 1025.0 5.9 NE 14.1 ENE 0.0 652.8
11:40 19.5 53.7 1025.0 4.3 E 8.5 ENE 0.0 596.1
11:45 19.4 55.1 1025.0 5.1 E 9.9 ENE 0.0 681.8
11:50 20.0 55.2 1024.0 5.7 NE 10.2 ENE 0.0 711.2
11:55 20.2 54.6 1024.0 7.1 ENE 14.8 ENE 0.0 566.4
12:00 19.6 55.4 1024.0 7.4 NE 16.2 ENE 0.0 327.1
12:05 19.4 56.2 1024.0 9.4 ENE 15.5 NE 0.0 524.1
12:10 19.3 56.4 1025.0 8.9 NE 14.5 NE 0.0 557.4
12:15 19.5 55.6 1024.0 4.4 ENE 14.1 NE 0.0 534.1
12:20 19.8 54.9 1024.0 5.7 ENE 11.3 NE 0.0 592.6
12:25 19.6 53.9 1024.0 7.0 ENE 10.6 E 0.0 567.3
12:30 19.5 54.5 1024.0 2.9 ESE 9.2 ESE 0.0 567.9
12:35 19.6 54.3 1024.0 4.2 E 9.2 NE 0.0 554.6
12:40 20.1 53.7 1025.0 3.5 ESE 8.5 ENE 0.0 511.5
12:45 20.3 52.5 1024.0 3.3 S 9.2 SSW 0.0 489.5
12:50 20.6 52.3 1024.0 1.7 SE 5.6 SE 0.0 480.0
12:55 20.5 52.0 1024.0 2.8 SE 9.2 ESE 0.0 477.7
13:00 20.3 53.1 1024.0 3.1 SE 7.4 SSW 0.0 441.6
13:05 19.9 53.2 1024.0 5.4 SE 12.3 SE 0.0 376.1
13:10 19.6 53.9 1024.0 5.6 S 13.4 SSE 0.0 451.1
13:15 19.7 53.1 1024.0 2.9 SSE 8.1 SSE 0.0 464.1
13:20 19.9 53.2 1024.0 4.4 ENE 8.5 ENE 0.0 476.9
13:25 19.9 53.5 1024.0 3.5 NE 6.4 ENE 0.0 482.3
13:30 20.2 52.2 1024.0 1.7 ENE 4.6 ENE 0.0 480.5
13:35 20.4 51.2 1024.0 2.1 SSE 6.7 SSE 0.0 453.5
13:40 20.1 51.5 1024.0 3.3 SSE 6.0 SE 0.0 428.2
13:45 19.9 52.2 1024.0 7.7 S 22.2 SSW 0.0 366.0
13:50 20.2 50.4 1024.0 4.3 SW 9.9 W 0.0 423.2
13:55 20.3 50.2 1024.0 3.1 NE 8.5 WSW 0.0 392.7
14:00 20.5 48.1 1024.0 3.0 NE 11.3 NNW 0.0 370.4
14:05 20.3 46.5 1024.0 7.6 NW 15.9 NW 0.0 366.6
14:10 20.2 47.3 1024.0 4.1 NNW 9.5 NE 0.0 355.9
14:15 20.2 47.1 1024.0 5.8 NNW 15.5 NNW 0.0 341.0
14:20 20.1 48.1 1024.0 6.3 N 12.0 NNW 0.0 332.1
14:25 19.9 47.6 1024.0 5.8 NNE 13.1 NNW 0.0 318.7
14:30 20.0 48.5 1024.0 3.5 NNW 9.5 NE 0.0 309.7
14:35 20.0 50.5 1024.0 2.0 W 6.0 WSW 0.0 298.6
14:40 20.1 48.7 1024.0 3.8 SW 10.2 SW 0.0 283.3
14:45 20.1 48.7 1024.0 3.7 SW 12.7 SSW 0.0 270.6
14:50 19.9 47.8 1024.0 3.8 SW 13.1 W 0.0 251.4
14:55 20.0 47.6 1024.0 3.2 WNW 12.0 WSW 0.0 243.4
15:00 20.1 47.0 1024.0 2.6 NNW 6.4 WSW 0.0 239.1
15:05 20.0 47.2 1024.0 2.5 NNE 7.8 WNW 0.0 223.5
15:10 19.9 48.8 1024.0 2.4 S 5.3 SW 0.0 202.6
15:15 19.5 50.3 1024.0 3.5 WSW 9.9 NNW 0.0 191.4
15:20 19.6 49.9 1024.0 2.2 NW 6.7 NE 0.0 181.3
15:25 18.9 55.9 1024.0 2.3 SW 7.4 S 0.0 144.3
15:30 18.6 58.2 1024.0 5.0 SSW 7.1 SW 0.0 83.5
15:35 17.7 61.3 1024.0 5.2 SW 7.4 SW 0.0 49.1
15:40 16.9 64.8 1025.0 6.2 SW 8.5 SW 0.0 45.1
15:45 16.3 67.7 1024.0 5.7 SW 7.8 SW 0.0 42.0
15:50 16.0 69.0 1024.0 5.3 SW 7.1 SW 0.0 38.4
15:55 15.8 69.5 1024.0 6.0 SW 7.4 SW 0.0 35.7
16:00 15.5 70.6 1024.0 7.1 SW 9.2 SSW 0.0 32.6
16:05 15.4 70.6 1024.0 7.3 SW 9.2 SW 0.0 30.3
16:10 15.1 72.4 1025.0 7.3 SW 9.9 SW 0.0 27.2
16:15 14.9 72.6 1024.0 8.8 SW 10.9 SW 0.0 24.4
16:20 14.7 73.7 1024.0 9.1 SW 10.9 SW 0.0 20.6
16:25 14.5 74.7 1024.0 8.7 SW 10.2 SW 0.0 17.2
16:30 14.2 75.8 1024.0 8.9 SSW 10.6 SW 0.0 14.4
16:35 14.1 76.0 1024.0 9.0 SSW 11.6 SSW 0.0 11.5
16:40 14.0 75.9 1025.0 7.3 SSW 9.9 SSW 0.0 7.7
16:45 13.7 76.9 1025.0 3.5 SW 6.0 SW 0.0 3.2
16:50 13.4 77.9 1024.0 5.2 SSW 7.4 SW 0.0 1.5
16:55 13.1 79.3 1024.0 5.7 SW 7.1 SW 0.0 1.1
17:00 12.8 80.4 1024.0 5.4 SW 7.8 SSW 0.0 0.9
17:05 12.6 81.9 1024.0 7.9 SSW 10.6 S 0.0 0.1
17:10 12.8 81.6 1025.0 5.3 SW 10.9 SW 0.0 0.0
17:15 12.6 81.9 1025.0 6.6 SW 9.5 SSW 0.0 0.0
17:20 12.4 81.8 1025.0 4.6 SW 8.1 WSW 0.0 0.0
17:25 12.2 82.6 1025.0 6.9 SW 10.9 WSW 0.0 0.0
17:30 12.2 83.2 1025.0 6.7 SSW 10.9 SW 0.0 0.0
17:35 12.3 83.0 1025.0 8.4 SSW 12.7 SW 0.0 0.0
17:40 12.3 82.2 1026.0 6.9 SSW 11.6 SSW 0.0 0.0
17:45 12.4 82.0 1025.0 9.0 SSW 13.1 SSW 0.0 0.0
17:50 12.3 81.6 1025.0 8.1 SSW 13.8 SW 0.0 0.0
17:55 12.3 81.6 1025.0 9.4 SSW 13.1 SSW 0.0 0.0
18:00 12.3 81.4 1025.0 9.9 SSW 13.8 SW 0.0 0.0
18:05 12.1 81.7 1025.0 8.8 SW 12.0 SSW 0.0 0.0
18:10 12.0 82.6 1025.0 9.6 SSW 13.1 SSW 0.0 0.0
18:15 12.0 82.5 1025.0 8.0 SW 12.3 WSW 0.0 0.0
18:20 12.0 82.2 1025.0 8.2 SW 12.7 SSW 0.0 0.0
18:25 11.9 81.9 1025.0 8.2 SW 11.3 SW 0.0 0.0
18:30 11.5 82.9 1025.0 7.9 SW 10.2 SW 0.0 0.0
18:35 11.2 84.5 1026.0 8.1 SW 9.9 SSW 0.0 0.0
18:40 11.1 85.6 1026.0 8.1 SW 10.9 SSW 0.0 0.0
18:45 10.9 86.9 1025.0 7.8 SSW 10.2 SW 0.0 0.0
18:50 10.9 88.1 1026.0 9.0 SSW 10.9 SW 0.0 0.0
18:55 10.8 88.5 1026.0 8.5 SW 10.9 SSW 0.0 0.0
19:00 10.7 89.2 1026.0 8.7 SSW 10.9 SSW 0.0 0.0
19:05 10.6 89.7 1026.0 6.5 SW 9.9 SW 0.0 0.0
19:10 10.6 90.0 1025.0 6.8 SSW 9.2 SSW 0.0 0.0
19:15 10.6 90.4 1025.0 7.5 SSW 13.1 SW 0.0 0.0
19:20 10.8 90.0 1025.0 7.3 SSW 12.3 SSW 0.0 0.0
19:25 10.9 89.2 1025.0 9.8 SSW 14.1 SW 0.0 0.0
19:30 11.0 87.7 1025.0 10.4 SW 15.2 SW 0.0 0.0
19:35 11.0 86.5 1026.0 9.2 SW 13.1 SW 0.0 0.0
19:40 10.7 86.8 1025.0 10.1 SW 13.8 SSW 0.0 0.0
19:45 10.6 87.9 1025.0 9.8 SW 15.2 W 0.0 0.0
19:50 10.7 88.1 1025.0 9.2 SW 15.5 SW 0.0 0.0
19:55 10.8 87.5 1025.0 9.7 SW 15.9 WSW 0.0 0.0
20:00 10.8 86.8 1025.0 9.4 SW 14.8 SSW 0.0 0.0
20:05 10.7 86.4 1026.0 8.5 SW 14.1 SW 0.0 0.0
20:10 10.6 86.6 1026.0 8.5 SW 16.9 SW 0.0 0.0
20:15 10.6 87.3 1026.0 10.9 SSW 16.9 SSW 0.0 0.0
20:20 10.7 86.5 1025.0 10.0 SW 12.7 SSW 0.0 0.0
20:25 10.5 87.0 1026.0 9.5 SW 16.6 SW 0.0 0.0
20:30 10.6 87.1 1025.0 9.8 SW 15.5 SW 0.0 0.0
20:35 10.6 86.4 1026.0 9.9 SW 13.8 WSW 0.0 0.0
20:40 10.6 86.3 1025.0 8.9 SW 15.9 SW 0.0 0.0
20:45 10.6 86.0 1025.0 10.5 SW 16.6 SW 0.0 0.0
20:50 10.8 84.9 1025.0 9.5 SW 16.9 SSW 0.0 0.0
20:55 10.7 84.7 1025.0 8.6 SW 15.2 WSW 0.0 0.0
21:00 10.5 85.1 1026.0 7.2 SW 11.6 SSW 0.0 0.0
21:05 10.2 86.4 1026.0 6.6 SW 10.9 SW 0.0 0.0
21:10 10.2 87.5 1026.0 7.1 SW 12.0 SSW 0.0 0.0
21:15 10.5 87.0 1026.0 9.1 SSW 15.2 SSW 0.0 0.0
21:20 10.6 85.6 1026.0 8.5 SW 14.5 SW 0.0 0.0
21:25 10.5 85.5 1026.0 8.2 SW 12.7 SW 0.0 0.0
21:30 10.4 85.9 1026.0 9.6 SW 14.8 SSW 0.0 0.0
21:35 10.5 85.6 1026.0 10.2 SW 16.9 SW 0.0 0.0
21:40 10.5 85.3 1026.0 10.3 SW 15.9 SW 0.0 0.0
21:45 10.5 84.9 1026.0 9.8 SW 16.6 SW 0.0 0.0
21:50 10.5 84.6 1026.0 10.2 SW 17.3 WSW 0.0 0.0
21:55 10.3 84.9 1026.0 9.7 SW 18.7 SW 0.0 0.0
22:00 10.1 86.2 1025.0 10.2 SW 15.5 SW 0.0 0.0
22:05 10.4 86.2 1026.0 9.5 SW 15.9 WSW 0.0 0.0
Màxima 20.6 94.6 1026.0 12.4 SW 22.2 SSW 0.0 711.2
Mínima 8.6 46.5 1023.0
Total 0.0